Time;durP1;ratioP1;P1;durP2;ratioP2;P2;SDS_P1;SDS_P2;PMS_P1;PMS_P2;Temp;Humidity;BMP_temperature;BMP_pressure;BME280_temperature;BME280_humidity;BME280_pressure;Samples;Min_cycle;Max_cycle;Signal;HPM_P1;HPM_P2
2023/10/14 00:02:21;;;;;;;;;0.00;0.00;;;;;20.89;59.80;100390.81;5036863;28;45955;-71
2023/10/14 00:04:47;;;;;;;;;1.67;0.00;;;;;20.86;59.67;100386.50;5044221;28;45415;-71
2023/10/14 00:07:17;;;;;;;;;0.50;0.00;;;;;21.07;59.71;100418.34;5035958;28;45286;-71
2023/10/14 00:09:50;;;;;;;;;0.00;0.00;;;;;21.10;59.91;100418.22;5037846;28;45564;-72
2023/10/14 00:12:16;;;;;;;;;0.00;0.00;;;;;20.69;60.10;100365.09;5037532;28;45452;-72
2023/10/14 00:14:43;;;;;;;;;1.00;0.00;;;;;20.94;60.00;100394.13;5037332;28;45532;-72
2023/10/14 00:17:18;;;;;;;;;0.00;0.00;;;;;20.67;60.13;100353.69;5035258;28;45958;-70
2023/10/14 00:19:49;;;;;;;;;0.00;0.00;;;;;21.10;60.42;100440.41;5033363;28;45445;-72
2023/10/14 00:22:17;;;;;;;;;0.00;0.00;;;;;21.04;60.45;100430.00;5035593;28;45429;-72
2023/10/14 00:24:43;;;;;;;;;0.00;0.00;;;;;21.08;61.87;100439.59;5036129;28;45511;-72
2023/10/14 00:27:09;;;;;;;;;0.00;0.00;;;;;20.77;62.37;100418.00;5037414;28;45374;-75
2023/10/14 00:29:36;;;;;;;;;0.00;0.00;;;;;20.56;62.45;100386.09;5035401;28;45581;-76
2023/10/14 00:32:05;;;;;;;;;1.00;0.00;;;;;20.73;62.73;100427.88;5035358;28;47131;-73
2023/10/14 00:34:30;;;;;;;;;0.00;0.00;;;;;20.92;62.55;100475.84;5053802;28;45606;-75
2023/10/14 00:36:57;;;;;;;;;1.00;0.00;;;;;20.72;62.68;100447.47;5039034;28;45508;-75
2023/10/14 00:39:31;;;;;;;;;0.00;0.00;;;;;20.33;63.05;100381.75;5036232;28;45567;-73
2023/10/14 00:41:58;;;;;;;;;1.00;0.00;;;;;20.73;63.64;100468.66;5038205;28;46284;-74
2023/10/14 00:44:24;;;;;;;;;0.00;0.00;;;;;20.66;63.56;100461.03;5037532;28;45520;-76
2023/10/14 00:46:51;;;;;;;;;0.00;0.00;;;;;20.81;63.57;100492.31;5037269;28;45487;-72
2023/10/14 00:49:31;;;;;;;;;0.00;0.00;;;;;20.38;63.71;100418.78;5023026;28;45415;-73
2023/10/14 00:51:59;;;;;;;;;0.00;0.00;;;;;20.79;64.15;100514.59;5035234;28;47695;-73
2023/10/14 00:57:20;;;;;;;;;0.00;0.00;;;;;20.71;65.93;100533.53;5033087;28;45600;-76
2023/10/14 00:59:55;;;;;;;;;0.00;0.00;;;;;20.47;66.25;100498.19;5025275;28;45409;-76
2023/10/14 01:02:30;;;;;;;;;0.00;0.00;;;;;20.29;66.77;100473.25;5019144;28;45488;-75
2023/10/14 01:04:56;;;;;;;;;0.00;0.00;;;;;20.45;66.42;100500.03;5020731;28;45618;-75
2023/10/14 01:07:25;;;;;;;;;0.00;0.00;;;;;20.57;66.67;100523.50;5035919;28;45432;-75
2023/10/14 01:09:52;;;;;;;;;0.00;0.00;;;;;20.53;66.01;100520.06;5021164;28;45389;-74
2023/10/14 01:14:53;;;;;;;;;0.00;0.00;;;;;20.27;66.02;100507.03;5019209;28;45573;-76
2023/10/14 01:17:26;;;;;;;;;0.00;0.00;;;;;20.38;66.26;100534.00;5025348;28;45510;-75
2023/10/14 01:20:20;;;;;;;;;2.00;1.00;;;;;20.56;65.63;100577.66;5024585;28;46092;-75
2023/10/14 01:23:00;;;;;;;;;1.00;0.00;;;;;20.35;65.58;100544.78;5023492;28;46475;-71
2023/10/14 01:25:41;;;;;;;;;0.67;0.67;;;;;20.56;64.81;100576.78;5020551;28;45564;-78
2023/10/14 01:28:15;;;;;;;;;0.00;0.00;;;;;20.51;64.50;100591.09;5041775;28;45405;-72
2023/10/14 01:31:10;;;;;;;;;1.00;1.00;;;;;20.49;64.50;100597.41;5041226;28;45390;-72
2023/10/14 01:33:36;;;;;;;;;0.33;0.33;;;;;20.33;64.45;100582.09;5039068;28;45924;-76
2023/10/14 01:36:02;;;;;;;;;1.00;0.00;;;;;20.43;64.27;100611.84;5055496;28;45945;-78
2023/10/14 01:38:31;;;;;;;;;0.00;0.00;;;;;20.39;64.10;100604.06;5039590;28;45528;-74
2023/10/14 01:40:57;;;;;;;;;0.00;0.00;;;;;20.36;64.35;100613.03;5038979;28;45370;-76
2023/10/14 01:43:29;;;;;;;;;2.00;0.67;;;;;20.36;64.13;100630.75;5039543;28;45466;-77
2023/10/14 01:48:21;;;;;;;;;0.00;0.00;;;;;20.30;62.80;100646.03;5023233;28;45405;-72
2023/10/14 01:50:54;;;;;;;;;1.00;1.00;;;;;20.30;62.90;100647.84;5033455;28;45682;-74
2023/10/14 01:53:25;;;;;;;;;0.00;0.00;;;;;20.10;62.46;100636.22;5029150;28;45483;-73
2023/10/14 01:55:55;;;;;;;;;1.33;0.00;;;;;20.05;61.79;100646.16;5037549;28;45431;-72
2023/10/14 01:58:22;;;;;;;;;0.00;0.00;;;;;20.15;61.39;100665.28;5038475;28;45416;-71
2023/10/14 02:00:52;;;;;;;;;0.00;0.00;;;;;20.25;60.99;100698.56;5028140;28;46045;-73
2023/10/14 02:03:20;;;;;;;;;0.00;0.00;;;;;20.23;60.10;100699.53;5046698;28;46295;-76
2023/10/14 02:05:46;;;;;;;;;0.00;0.00;;;;;20.20;59.03;100703.19;5045302;28;45382;-75
2023/10/14 02:08:15;;;;;;;;;0.00;0.00;;;;;20.13;59.10;100707.00;5044009;28;45409;-73
2023/10/14 02:10:46;;;;;;;;;0.33;0.33;;;;;20.03;58.88;100713.59;5040353;28;45635;-73
2023/10/14 02:13:14;;;;;;;;;1.67;0.00;;;;;20.05;58.73;100715.28;5039449;28;46627;-72
2023/10/14 02:15:39;;;;;;;;;0.67;0.33;;;;;19.84;57.81;100719.59;5040077;28;45480;-72
2023/10/14 02:18:05;;;;;;;;;0.33;0.33;;;;;19.85;57.39;100736.41;5026425;28;45524;-71
2023/10/14 02:20:37;;;;;;;;;0.00;0.00;;;;;19.81;56.43;100740.97;5040159;28;45330;-72
2023/10/14 02:23:05;;;;;;;;;1.00;1.00;;;;;19.78;55.90;100762.34;5040410;28;45508;-71
2023/10/14 02:25:33;;;;;;;;;5.67;0.33;;;;;19.63;54.76;100754.88;5040296;28;45496;-71
2023/10/14 02:27:58;;;;;;;;;0.00;0.00;;;;;19.60;53.73;100758.53;5039123;28;45281;-71
2023/10/14 02:30:24;;;;;;;;;2.00;1.00;;;;;19.48;53.13;100753.59;5038494;28;45444;-73
2023/10/14 02:32:50;;;;;;;;;1.33;1.00;;;;;19.48;53.55;100762.47;5038479;28;45430;-70
2023/10/14 02:35:16;;;;;;;;;2.00;0.67;;;;;19.46;53.43;100782.91;5038515;28;45502;-74
2023/10/14 02:37:41;;;;;;;;;1.00;1.00;;;;;19.40;52.87;100772.47;5040110;28;45539;-70
2023/10/14 02:40:12;;;;;;;;;3.00;0.00;;;;;19.36;52.71;100773.53;5038882;28;45528;-74
2023/10/14 02:42:41;;;;;;;;;2.00;0.67;;;;;19.26;52.76;100772.06;5038002;28;46151;-71
2023/10/14 02:45:12;;;;;;;;;0.33;0.33;;;;;19.06;52.25;100755.03;5038280;28;45360;-71
2023/10/14 02:47:38;;;;;;;;;0.00;0.00;;;;;19.24;52.61;100781.88;5040039;28;45559;-72
2023/10/14 02:50:05;;;;;;;;;1.67;1.33;;;;;19.09;52.15;100759.34;5038811;28;45524;-79
2023/10/14 02:52:30;;;;;;;;;2.00;1.00;;;;;19.18;52.30;100793.56;5040648;28;46076;-71
2023/10/14 02:57:40;;;;;;;;;1.00;1.00;;;;;19.00;51.52;100783.53;5038353;28;45375;-71
2023/10/14 03:00:09;;;;;;;;;0.00;0.00;;;;;18.98;51.27;100798.66;5040052;28;45239;-71
2023/10/14 03:02:54;;;;;;;;;1.00;1.00;;;;;18.88;51.37;100784.81;5038127;28;45634;-72
2023/10/14 03:05:35;;;;;;;;;2.00;1.00;;;;;18.93;50.88;100806.75;5038548;28;45483;-73
2023/10/14 03:08:12;;;;;;;;;1.67;0.00;;;;;18.82;51.12;100808.91;5038103;28;45346;-76
2023/10/14 03:10:45;;;;;;;;;2.00;0.00;;;;;18.75;50.91;100816.13;5039733;28;45409;-74
2023/10/14 03:13:14;;;;;;;;;4.00;1.00;;;;;18.74;51.37;100816.16;5039359;28;45719;-75
2023/10/14 03:15:47;;;;;;;;;2.00;0.33;;;;;18.72;51.00;100824.19;5038172;28;45488;-78
2023/10/14 03:18:16;;;;;;;;;1.67;0.67;;;;;18.76;51.17;100847.06;5038557;28;45417;-72
2023/10/14 03:21:00;;;;;;;;;0.33;0.33;;;;;18.74;50.96;100846.22;5039536;28;45429;-73
2023/10/14 03:23:27;;;;;;;;;1.00;1.00;;;;;18.62;51.28;100839.50;5038816;28;45443;-78
2023/10/14 03:28:52;;;;;;;;;1.00;1.00;;;;;18.72;50.99;100860.44;5047988;28;45443;-78
2023/10/14 03:31:19;;;;;;;;;2.00;1.33;;;;;18.58;50.64;100844.94;5039372;28;45484;-77
2023/10/14 03:33:46;;;;;;;;;3.00;0.00;;;;;18.58;50.49;100861.75;5038661;28;45544;-75
2023/10/14 03:36:15;;;;;;;;;1.00;1.00;;;;;18.55;50.43;100866.25;5037324;28;45591;-77
2023/10/14 03:38:42;;;;;;;;;1.67;1.67;;;;;18.56;50.39;100870.66;5039856;28;45344;-78
2023/10/14 03:41:10;;;;;;;;;2.00;1.00;;;;;18.53;50.46;100876.03;5039637;28;45559;-73
2023/10/14 03:46:24;;;;;;;;;1.33;0.67;;;;;18.48;50.21;100878.81;5037759;28;45475;-78
2023/10/14 03:48:58;;;;;;;;;1.00;1.00;;;;;18.36;50.12;100874.72;5041921;28;45438;-78
2023/10/14 03:51:25;;;;;;;;;2.33;1.00;;;;;18.34;50.01;100876.56;5026865;28;45425;-78
2023/10/14 03:53:55;;;;;;;;;2.33;1.00;;;;;18.29;50.08;100877.59;5038690;28;45481;-75
2023/10/14 03:56:24;;;;;;;;;2.67;1.00;;;;;18.02;50.10;100849.16;5039324;28;45398;-77
2023/10/14 03:58:55;;;;;;;;;0.67;0.67;;;;;18.31;50.50;100900.50;5038359;28;45296;-78
2023/10/14 04:01:28;;;;;;;;;1.33;1.00;;;;;18.34;49.94;100908.41;5037759;28;45491;-79
2023/10/14 04:03:54;;;;;;;;;2.67;0.67;;;;;18.31;50.02;100911.09;5037293;28;45586;-76
2023/10/14 04:06:20;;;;;;;;;1.00;1.00;;;;;18.29;50.01;100917.38;5038051;28;45333;-76
2023/10/14 04:08:50;;;;;;;;;1.00;1.00;;;;;18.29;49.00;100920.03;5038767;28;45498;-74
2023/10/14 04:11:25;;;;;;;;;2.67;1.00;;;;;18.26;49.36;100928.94;5038911;28;45274;-74
2023/10/14 04:14:14;;;;;;;;;5.33;1.67;;;;;18.15;49.12;100918.63;5038097;28;46423;-78
2023/10/14 04:19:27;;;;;;;;;2.00;1.33;;;;;18.14;49.31;100938.06;5041309;28;45717;-70
2023/10/14 04:22:01;;;;;;;;;2.00;1.00;;;;;18.10;49.72;100941.72;5032894;28;45527;-78
2023/10/14 04:27:45;;;;;;;;;2.67;1.00;;;;;18.07;49.61;100944.44;5038026;28;45531;-70
2023/10/14 04:35:24;;;;;;;;;1.00;0.00;;;;;18.01;49.34;100955.22;5036739;28;45495;-69
2023/10/14 04:37:51;;;;;;;;;2.00;0.00;;;;;17.64;49.27;100896.94;5049536;28;45493;-70
2023/10/14 04:40:35;;;;;;;;;1.00;1.00;;;;;17.93;49.85;100946.56;5045620;28;45513;-70
2023/10/14 04:45:55;;;;;;;;;3.67;1.00;;;;;17.83;49.15;100953.88;5016731;28;46027;-72
2023/10/14 04:48:35;;;;;;;;;2.33;0.33;;;;;17.89;49.71;100966.09;5036212;28;45415;-69
2023/10/14 04:51:15;;;;;;;;;2.67;1.00;;;;;17.63;49.71;100929.63;5023754;28;45519;-71
2023/10/14 04:53:43;;;;;;;;;1.00;0.00;;;;;17.86;49.94;100968.84;5036912;28;45429;-71
2023/10/14 04:56:10;;;;;;;;;2.00;1.00;;;;;17.80;50.09;100965.44;5036315;28;46661;-69
2023/10/14 04:58:46;;;;;;;;;1.00;1.00;;;;;17.90;49.81;100983.75;5036071;28;45499;-70
2023/10/14 05:01:17;;;;;;;;;4.00;1.00;;;;;17.90;49.72;100984.63;5036779;28;45436;-71
2023/10/14 05:03:44;;;;;;;;;1.67;1.00;;;;;17.57;49.81;100947.41;5038341;28;45289;-76
2023/10/14 05:08:48;;;;;;;;;1.00;0.67;;;;;17.62;49.82;100952.59;5038642;28;45346;-70
2023/10/14 05:11:18;;;;;;;;;0.33;0.33;;;;;17.78;49.86;100976.94;5039002;28;45512;-70
2023/10/14 05:14:07;;;;;;;;;3.33;1.00;;;;;17.77;49.64;100981.38;5039595;28;45517;-70
2023/10/14 05:20:16;;;;;;;;;0.00;0.00;;;;;17.51;49.83;100941.38;5037367;28;45448;-69
2023/10/14 05:22:19;;;;;;;;;0.00;0.00;;;;;17.69;49.91;100978.03;5032688;28;45402;-70
2023/10/14 05:24:48;;;;;;;;;2.00;2.00;;;;;17.36;49.15;100924.06;5031860;28;45419;-68
2023/10/14 05:27:17;;;;;;;;;1.00;0.00;;;;;17.73;50.01;101006.19;5032451;28;45436;-72
2023/10/14 05:29:50;;;;;;;;;1.00;1.00;;;;;17.68;49.91;100978.94;5030490;28;45481;-72
2023/10/14 05:32:18;;;;;;;;;1.33;1.00;;;;;17.48;49.97;100954.69;5029887;28;45552;-69
2023/10/14 05:34:47;;;;;;;;;3.33;1.00;;;;;17.69;49.65;101008.94;5030972;28;45402;-68
2023/10/14 05:37:14;;;;;;;;;1.00;0.33;;;;;17.69;49.65;101006.31;5020898;28;46276;-70
2023/10/14 05:39:41;;;;;;;;;0.67;0.67;;;;;17.59;49.53;100997.69;5022734;28;45484;-69
2023/10/14 05:42:16;;;;;;;;;4.33;0.33;;;;;17.69;49.24;101019.53;5026855;28;45440;-69
2023/10/14 05:44:49;;;;;;;;;0.67;0.67;;;;;17.50;49.36;100989.97;5026003;28;45674;-70
2023/10/14 05:47:19;;;;;;;;;3.67;1.00;;;;;17.68;49.46;101026.63;5016098;28;46213;-69
2023/10/14 05:49:47;;;;;;;;;2.67;1.33;;;;;17.64;49.63;101018.78;5020062;28;45420;-68
2023/10/14 05:52:13;;;;;;;;;0.67;0.00;;;;;17.59;49.28;101026.81;5030655;28;45408;-70
2023/10/14 05:55:39;;;;;;;;;1.00;1.00;;;;;17.62;49.64;101034.69;5022403;28;45546;-68
2023/10/14 05:58:17;;;;;;;;;4.00;0.00;;;;;17.45;49.97;101020.97;5017587;28;46291;-69
2023/10/14 06:00:43;;;;;;;;;3.00;1.00;;;;;17.50;50.00;101051.72;5033133;28;45239;-68
2023/10/14 06:03:21;;;;;;;;;2.67;1.67;;;;;17.40;50.09;101041.38;5028214;28;46145;-69
2023/10/14 06:05:47;;;;;;;;;2.67;2.00;;;;;17.22;50.22;101013.50;5029501;28;45398;-70
2023/10/14 06:08:18;;;;;;;;;1.33;1.33;;;;;17.36;50.20;101032.63;5031315;28;46206;-69
2023/10/14 06:10:52;;;;;;;;;7.33;2.67;;;;;17.33;49.76;101025.63;5032471;28;45299;-74
2023/10/14 06:13:19;;;;;;;;;3.33;2.00;;;;;17.59;49.56;101066.56;5040033;28;45481;-76
2023/10/14 06:15:46;;;;;;;;;1.67;1.33;;;;;17.54;49.99;101079.03;5041992;28;45421;-74
2023/10/14 06:18:15;;;;;;;;;4.00;1.00;;;;;17.52;49.96;101064.94;5028753;28;45469;-72
2023/10/14 06:21:08;;;;;;;;;3.00;3.00;;;;;17.52;50.01;101065.81;5044262;28;45530;-74
2023/10/14 06:23:34;;;;;;;;;3.67;3.67;;;;;17.62;50.01;101094.75;5036491;28;45449;-69
2023/10/14 06:26:05;;;;;;;;;4.00;4.00;;;;;17.55;49.91;101091.34;5039786;28;45430;-76
2023/10/14 06:28:33;;;;;;;;;3.00;3.00;;;;;17.51;50.29;101109.09;5043699;28;46809;-67
2023/10/14 06:31:04;;;;;;;;;3.33;1.00;;;;;17.46;50.67;101102.13;5021746;28;45423;-72
2023/10/14 06:34:08;;;;;;;;;;;;;;;;;;;;;
2023/10/14 06:36:35;;;;;;;;;3.00;1.00;;;;;17.27;50.24;101067.22;4997644;28;65948;-70
2023/10/14 06:39:26;;;;;;;;;3.00;3.00;;;;;17.56;49.89;101120.47;5028603;28;45424;-70
2023/10/14 06:41:52;;;;;;;;;2.67;1.33;;;;;17.59;50.09;101122.19;5026968;28;45473;-75
2023/10/14 06:44:45;;;;;;;;;2.67;2.00;;;;;17.57;50.05;101130.16;5037630;28;45513;-74
2023/10/14 06:47:11;;;;;;;;;2.00;1.00;;;;;17.17;49.58;101066.53;5039213;28;46189;-75
2023/10/14 06:49:41;;;;;;;;;1.00;1.00;;;;;17.40;49.17;101091.69;5026673;28;46846;-70
2023/10/14 06:52:08;;;;;;;;;2.00;2.00;;;;;17.36;48.86;101075.84;5026587;28;45599;-67
2023/10/14 06:54:36;;;;;;;;;2.00;1.33;;;;;17.76;48.79;101137.72;5022966;28;45595;-71
2023/10/14 06:57:07;;;;;;;;;3.33;2.00;;;;;17.73;48.64;101129.84;5025408;28;45615;-68
2023/10/14 06:59:37;;;;;;;;;1.00;1.00;;;;;17.78;48.01;101135.91;5035160;28;46930;-70
2023/10/14 07:02:04;;;;;;;;;4.33;4.00;;;;;17.77;47.94;101140.34;5029196;28;45598;-69
2023/10/14 07:04:29;;;;;;;;;5.00;3.00;;;;;17.23;47.79;101061.13;5029348;28;45447;-68
2023/10/14 07:06:58;;;;;;;;;1.33;1.33;;;;;17.81;47.68;101151.75;5021616;28;45232;-77
2023/10/14 07:09:27;;;;;;;;;2.33;1.00;;;;;17.91;47.57;101165.69;5038464;28;46472;-74
2023/10/14 07:11:55;;;;;;;;;1.67;1.67;;;;;17.92;47.42;101173.59;5039169;28;45380;-77
2023/10/14 07:14:35;;;;;;;;;;;;;;;;;;;;;
2023/10/14 07:17:17;;;;;;;;;3.00;1.00;;;;;17.64;48.26;101175.06;5034436;28;63710;-69
2023/10/14 07:19:47;;;;;;;;;2.00;1.00;;;;;17.55;47.81;101176.97;5055743;27;47079;-68
2023/10/14 07:22:15;;;;;;;;;1.00;1.00;;;;;17.45;48.01;101156.88;5041127;28;45465;-72
2023/10/14 07:24:41;;;;;;;;;3.00;1.00;;;;;17.85;47.77;101203.78;5019442;28;45370;-67
2023/10/14 07:27:08;;;;;;;;;2.00;1.00;;;;;17.92;47.56;101196.59;5018614;28;45327;-72
2023/10/14 07:29:34;;;;;;;;;2.33;0.33;;;;;17.63;47.70;101131.81;5020577;28;45464;-73
2023/10/14 07:32:01;;;;;;;;;1.33;1.00;;;;;18.07;47.26;101180.34;5021376;28;45436;-70
2023/10/14 07:34:27;;;;;;;;;7.00;5.00;;;;;18.07;46.63;101171.53;5021467;28;46038;-71
2023/10/14 07:37:00;;;;;;;;;6.00;3.00;;;;;18.20;46.30;101186.28;5033690;28;45590;-68
2023/10/14 07:39:29;;;;;;;;;2.33;2.33;;;;;18.30;45.96;101190.44;5023532;28;45524;-69
2023/10/14 07:41:56;;;;;;;;;2.00;0.67;;;;;18.55;45.80;101224.34;5028029;28;45433;-68
2023/10/14 07:44:25;;;;;;;;;2.00;1.00;;;;;18.41;45.61;101196.38;5019019;28;45469;-73
2023/10/14 07:46:53;;;;;;;;;4.33;0.00;;;;;18.06;45.21;101141.50;5027290;28;45636;-71
2023/10/14 07:49:19;;;;;;;;;3.00;1.33;;;;;18.62;45.77;101228.59;5018140;28;46319;-75
2023/10/14 07:51:50;;;;;;;;;2.67;2.00;;;;;18.63;45.10;101220.63;5028458;28;45353;-72
2023/10/14 07:54:21;;;;;;;;;1.00;1.00;;;;;18.59;45.09;101200.38;5037435;28;45406;-71
2023/10/14 07:56:49;;;;;;;;;1.67;1.00;;;;;18.80;45.15;101238.81;5038344;28;45304;-72
2023/10/14 07:59:19;;;;;;;;;7.33;5.00;;;;;18.73;44.89;101221.25;5037095;28;46132;-70
2023/10/14 08:01:45;;;;;;;;;5.67;4.67;;;;;18.69;49.05;101210.75;5037235;28;45441;-70
2023/10/14 08:04:14;;;;;;;;;8.33;4.67;;;;;18.65;45.78;101194.94;5055187;28;45295;-73
2023/10/14 08:06:44;;;;;;;;;3.33;3.33;;;;;18.80;45.36;101208.75;5039554;28;45489;-71
2023/10/14 08:09:24;;;;;;;;;3.67;2.00;;;;;18.87;45.17;101236.91;5037541;28;46438;-72
2023/10/14 08:11:50;;;;;;;;;3.00;1.00;;;;;19.01;45.09;101242.72;5038065;28;45860;-71
2023/10/14 08:14:16;;;;;;;;;3.67;2.67;;;;;18.72;48.32;101184.16;5034259;28;45495;-73
2023/10/14 08:16:42;;;;;;;;;3.67;1.00;;;;;18.88;46.59;101195.28;5038327;28;45483;-70
2023/10/14 08:19:10;;;;;;;;;4.67;2.00;;;;;19.21;46.29;101231.59;5033882;28;45449;-71
2023/10/14 08:21:36;;;;;;;;;4.33;2.00;;;;;19.53;47.08;101248.47;5017538;28;45460;-72
2023/10/14 08:24:05;;;;;;;;;2.00;1.67;;;;;19.60;45.62;101230.56;5022622;28;45624;-73
2023/10/14 08:26:34;;;;;;;;;1.33;1.33;;;;;19.61;44.86;101206.63;5038249;28;45552;-72
2023/10/14 08:29:00;;;;;;;;;1.33;1.33;;;;;19.95;44.72;101256.19;5016473;28;46222;-72
2023/10/14 08:31:27;;;;;;;;;3.33;1.33;;;;;20.03;45.68;101237.38;5039562;28;45385;-71
2023/10/14 08:33:53;;;;;;;;;2.67;1.67;;;;;20.07;43.30;101233.69;5018405;28;45334;-74
2023/10/14 08:36:18;;;;;;;;;3.33;1.33;;;;;20.09;42.21;101194.63;5040086;28;45641;-73
2023/10/14 08:38:47;;;;;;;;;1.00;1.00;;;;;20.27;43.31;101219.81;5029381;28;46508;-76
2023/10/14 08:41:14;;;;;;;;;4.00;2.00;;;;;20.61;42.53;101256.03;5038832;28;45531;-77
2023/10/14 08:43:49;;;;;;;;;1.67;0.67;;;;;20.90;41.37;101274.59;5036823;28;45486;-76
2023/10/14 08:46:23;;;;;;;;;2.00;1.00;;;;;21.01;41.56;101278.72;5029733;28;45479;-74
2023/10/14 08:49:01;;;;;;;;;2.00;2.00;;;;;21.11;41.19;101280.16;5023747;28;46224;-77
2023/10/14 08:51:28;;;;;;;;;1.33;1.33;;;;;21.03;41.20;101248.44;5028789;28;45538;-77
2023/10/14 08:53:56;;;;;;;;;2.00;1.00;;;;;21.28;41.48;101271.59;5018740;28;45541;-73
2023/10/14 08:56:24;;;;;;;;;2.00;1.00;;;;;21.24;40.60;101257.50;5035147;28;45506;-78
2023/10/14 08:58:57;;;;;;;;;2.00;1.00;;;;;21.39;39.83;101277.41;5038029;28;45251;-75
2023/10/14 09:01:31;;;;;;;;;2.00;1.00;;;;;21.32;40.40;101266.09;5038064;28;46501;-72
2023/10/14 09:03:59;;;;;;;;;1.00;1.00;;;;;21.40;40.31;101268.53;5038518;28;45580;-76
2023/10/14 09:06:25;;;;;;;;;1.00;1.00;;;;;21.60;38.69;101300.69;5038457;28;45491;-77
2023/10/14 09:08:52;;;;;;;;;1.33;0.33;;;;;21.46;38.57;101271.00;5038605;28;45440;-78
2023/10/14 09:11:33;;;;;;;;;1.00;1.00;;;;;21.52;38.80;101265.47;5039178;28;45362;-72
2023/10/14 09:14:04;;;;;;;;;0.00;0.00;;;;;21.23;38.22;101202.47;5024622;28;45449;-78
2023/10/14 09:16:32;;;;;;;;;1.00;1.00;;;;;21.50;38.30;101224.66;5038009;28;45382;-72
2023/10/14 09:19:00;;;;;;;;;1.33;1.00;;;;;21.93;37.86;101295.09;5037251;28;46570;-76
2023/10/14 09:21:28;;;;;;;;;4.67;1.00;;;;;21.86;37.77;101277.56;5036324;28;45619;-71
2023/10/14 09:23:54;;;;;;;;;3.33;1.00;;;;;22.22;37.37;101291.38;5037501;28;45333;-75
2023/10/14 09:26:21;;;;;;;;;4.33;1.33;;;;;22.55;37.06;101308.81;5038916;28;45557;-74
2023/10/14 09:28:48;;;;;;;;;3.00;1.25;;;;;22.61;36.63;101265.84;5038453;28;46191;-74
2023/10/14 09:31:14;;;;;;;;;2.00;0.00;;;;;23.07;36.68;101280.06;5036226;28;45389;-70
2023/10/14 09:33:43;;;;;;;;;1.00;1.00;;;;;23.37;36.00;101309.09;5020585;28;45365;-69
2023/10/14 09:36:20;;;;;;;;;0.25;0.25;;;;;22.90;36.46;101240.66;5036712;28;45438;-69
2023/10/14 09:38:51;;;;;;;;;1.25;0.75;;;;;23.00;35.81;101242.03;5026650;28;47536;-70
2023/10/14 09:41:17;;;;;;;;;0.25;0.25;;;;;23.11;36.09;101313.72;5020180;28;45389;-71
2023/10/14 09:43:45;;;;;;;;;3.25;0.50;;;;;22.95;36.71;101304.56;5020070;28;45532;-71
2023/10/14 09:46:12;;;;;;;;;1.75;1.75;;;;;22.17;36.68;101213.28;5038647;28;45589;-79
2023/10/14 09:48:39;;;;;;;;;1.00;1.00;;;;;22.53;36.59;101283.97;5038534;28;47710;-75
2023/10/14 09:51:06;;;;;;;;;0.50;0.50;;;;;22.58;37.14;101308.69;5025345;28;45524;-73
2023/10/14 09:53:34;;;;;;;;;0.75;0.75;;;;;22.13;36.75;101253.47;5039916;28;45550;-72
2023/10/14 09:56:05;;;;;;;;;2.00;2.00;;;;;22.10;36.89;101286.47;5037497;28;45565;-72
2023/10/14 09:58:43;;;;;;;;;3.00;3.00;;;;;22.05;37.36;101315.09;5032690;28;45476;-79
2023/10/14 10:01:18;;;;;;;;;1.00;1.00;;;;;21.36;37.55;101234.91;5038328;28;45421;-76
2023/10/14 10:03:56;;;;;;;;;2.00;1.00;;;;;21.68;37.81;101327.06;5040650;28;45390;-70
2023/10/14 10:06:52;;;;;;;;;1.25;1.25;;;;;21.49;38.04;101321.50;5042257;28;45460;-70
2023/10/14 10:09:39;;;;;;;;;2.00;1.33;;;;;21.49;37.92;101333.97;5019827;28;46064;-73
2023/10/14 10:12:10;;;;;;;;;2.00;2.00;;;;;20.87;38.24;101249.88;5020902;28;45437;-72
2023/10/14 10:14:45;;;;;;;;;5.33;3.00;;;;;21.26;38.90;101342.69;5031239;28;45510;-72
2023/10/14 10:17:14;;;;;;;;;1.00;1.00;;;;;20.92;38.88;101303.84;5019424;28;45488;-72
2023/10/14 10:20:09;;;;;;;;;1.67;1.00;;;;;20.43;38.87;101257.44;5036166;28;46725;-78
2023/10/14 10:22:56;;;;;;;;;1.00;1.00;;;;;20.72;38.78;101334.63;5030086;28;45393;-72
2023/10/14 10:25:50;;;;;;;;;3.00;1.00;;;;;20.74;39.12;101356.75;5039138;28;45366;-71
2023/10/14 10:28:27;;;;;;;;;1.33;1.00;;;;;20.66;39.52;101358.75;5039554;28;45513;-73
2023/10/14 10:31:09;;;;;;;;;3.00;1.67;;;;;20.51;39.38;101357.41;5038943;28;46492;-71
2023/10/14 10:33:58;;;;;;;;;2.67;1.00;;;;;20.44;41.25;101369.13;5038161;28;45341;-72
2023/10/14 10:36:28;;;;;;;;;0.00;0.00;;;;;20.33;40.89;101371.22;5038709;28;45503;-70
2023/10/14 10:38:57;;;;;;;;;2.00;1.00;;;;;20.32;41.88;101369.50;5025734;28;45440;-72
2023/10/14 10:41:25;;;;;;;;;2.67;1.33;;;;;20.31;41.30;101376.63;5039069;28;45589;-72
2023/10/14 10:44:03;;;;;;;;;1.33;1.33;;;;;20.31;41.21;101373.94;5038621;28;45335;-73
2023/10/14 10:46:40;;;;;;;;;8.67;8.67;;;;;19.93;40.94;101316.50;5038822;28;45403;-72
2023/10/14 10:49:10;;;;;;;;;49.00;39.00;;;;;20.24;41.56;101382.13;5050774;28;45575;-71
2023/10/14 10:51:42;;;;;;;;;47.50;40.50;;;;;19.73;41.42;101325.03;5028269;28;45519;-70
2023/10/14 10:54:11;;;;;;;;;26.00;24.00;;;;;20.11;41.39;101378.94;5054968;28;45529;-73
2023/10/14 10:56:37;;;;;;;;;11.00;9.33;;;;;20.03;41.32;101371.19;5040387;28;45337;-73
2023/10/14 10:59:04;;;;;;;;;7.67;4.67;;;;;19.87;41.43;101375.16;5039770;28;45604;-71
2023/10/14 11:01:33;;;;;;;;;5.67;3.00;;;;;19.65;41.62;101342.94;5041430;28;45358;-72
2023/10/14 11:04:03;;;;;;;;;3.00;2.67;;;;;19.73;41.49;101379.97;5055745;28;45471;-71
2023/10/14 11:06:32;;;;;;;;;3.00;2.33;;;;;19.66;41.86;101384.53;5040073;28;45346;-73
2023/10/14 11:08:58;;;;;;;;;2.67;2.00;;;;;19.42;42.08;101357.66;5038487;28;45311;-73
2023/10/14 11:11:34;;;;;;;;;3.33;3.33;;;;;19.48;42.27;101392.06;5037374;28;47148;-72
2023/10/14 11:14:00;;;;;;;;;4.00;3.00;;;;;19.14;42.40;101352.16;5038428;28;46048;-74
2023/10/14 11:16:28;;;;;;;;;2.00;2.00;;;;;19.30;42.98;101396.94;5036722;28;45393;-73
2023/10/14 11:18:55;;;;;;;;;2.00;2.00;;;;;19.11;43.05;101377.91;5038227;28;45306;-72
2023/10/14 11:21:22;;;;;;;;;2.00;2.00;;;;;18.59;44.62;101317.09;5039822;28;46137;-74
2023/10/14 11:23:52;;;;;;;;;4.67;2.00;;;;;18.56;44.92;101308.34;5026107;28;45352;-76
2023/10/14 11:26:19;;;;;;;;;3.00;3.00;;;;;19.22;45.44;101397.09;5033594;28;45385;-74
2023/10/14 11:28:45;;;;;;;;;5.00;3.33;;;;;19.16;46.60;101383.97;5043437;28;45533;-73
2023/10/14 11:31:11;;;;;;;;;3.00;3.00;;;;;19.45;45.52;101420.47;5041316;28;45547;-75
2023/10/14 11:33:37;;;;;;;;;3.67;3.67;;;;;19.15;45.18;101347.69;5037664;28;45546;-75
2023/10/14 11:36:07;;;;;;;;;1.00;1.00;;;;;19.38;43.60;101395.81;5020236;28;45460;-71
2023/10/14 11:38:47;;;;;;;;;4.33;3.00;;;;;19.46;43.46;101411.59;5022523;28;45604;-74
2023/10/14 11:41:15;;;;;;;;;3.00;2.00;;;;;19.19;43.40;101383.91;5022908;28;45396;-73
2023/10/14 11:43:45;;;;;;;;;1.67;1.33;;;;;19.23;43.85;101422.75;5021448;28;45576;-72
2023/10/14 11:46:11;;;;;;;;;2.67;2.67;;;;;19.10;44.65;101402.69;5019555;28;45391;-73
2023/10/14 11:48:38;;;;;;;;;3.00;1.67;;;;;18.82;45.60;101371.47;5031975;28;45610;-73
2023/10/14 11:51:21;;;;;;;;;2.67;1.00;;;;;19.24;46.27;101429.81;5023331;28;46279;-73
2023/10/14 11:53:52;;;;;;;;;3.33;2.00;;;;;19.24;46.63;101437.78;5034746;28;45466;-75
2023/10/14 11:56:19;;;;;;;;;3.00;1.33;;;;;19.22;46.84;101432.53;5041631;28;45351;-74
2023/10/14 11:58:49;;;;;;;;;2.33;1.00;;;;;18.63;47.00;101339.13;5040075;28;45393;-75
2023/10/14 12:01:32;;;;;;;;;3.67;1.00;;;;;19.04;46.40;101409.03;5037879;28;45597;-73
2023/10/14 12:04:02;;;;;;;;;1.00;1.00;;;;;18.84;47.87;101406.84;5037292;28;45413;-73
2023/10/14 12:06:30;;;;;;;;;3.00;1.67;;;;;18.51;46.50;101371.22;5039072;28;45414;-74
2023/10/14 12:08:58;;;;;;;;;1.00;1.00;;;;;18.58;47.01;101407.31;5038937;28;45415;-75
2023/10/14 12:11:29;;;;;;;;;4.67;2.00;;;;;18.48;46.60;101393.38;5053711;28;47862;-72
2023/10/14 12:13:58;;;;;;;;;2.67;1.00;;;;;18.43;46.40;101401.41;5038496;28;45542;-73
2023/10/14 12:16:33;;;;;;;;;1.67;1.67;;;;;18.43;46.76;101404.06;5038804;28;45334;-75
2023/10/14 12:19:00;;;;;;;;;2.00;2.00;;;;;18.49;47.14;101419.00;5034527;28;45616;-75
2023/10/14 12:21:26;;;;;;;;;1.00;1.00;;;;;18.37;47.03;101395.38;5026003;28;45986;-72